sensor_id;sensor_type;location;lat;lon;timestamp;temperature;humidity
15888;DHT22;56032;51.324;12.376;2022-10-16T00:00:27;16.20;99.90
15888;DHT22;56032;51.324;12.376;2022-10-16T00:02:55;16.20;99.90
15888;DHT22;56032;51.324;12.376;2022-10-16T00:05:23;16.10;99.90
15888;DHT22;56032;51.324;12.376;2022-10-16T00:07:52;16.10;99.90
15888;DHT22;56032;51.324;12.376;2022-10-16T00:10:20;16.10;99.90
15888;DHT22;56032;51.324;12.376;2022-10-16T00:12:49;16.00;99.90
15888;DHT22;56032;51.324;12.376;2022-10-16T00:15:17;16.00;99.90
15888;DHT22;56032;51.324;12.376;2022-10-16T00:17:47;16.00;99.90
15888;DHT22;56032;51.324;12.376;2022-10-16T00:20:15;16.00;99.90
15888;DHT22;56032;51.324;12.376;2022-10-16T00:22:43;16.00;99.90
15888;DHT22;56032;51.324;12.376;2022-10-16T00:25:12;16.00;99.90
15888;DHT22;56032;51.324;12.376;2022-10-16T00:27:40;16.00;99.90
15888;DHT22;56032;51.324;12.376;2022-10-16T00:30:09;16.10;99.90
15888;DHT22;56032;51.324;12.376;2022-10-16T00:32:38;16.10;99.90
15888;DHT22;56032;51.324;12.376;2022-10-16T00:35:08;16.10;99.90
15888;DHT22;56032;51.324;12.376;2022-10-16T00:37:36;16.10;99.90
15888;DHT22;56032;51.324;12.376;2022-10-16T00:40:05;16.20;99.90
15888;DHT22;56032;51.324;12.376;2022-10-16T00:42:36;16.20;99.90
15888;DHT22;56032;51.324;12.376;2022-10-16T00:45:05;16.20;99.90
15888;DHT22;56032;51.324;12.376;2022-10-16T00:47:34;16.20;99.90
15888;DHT22;56032;51.324;12.376;2022-10-16T00:50:04;16.20;99.90
15888;DHT22;56032;51.324;12.376;2022-10-16T00:55:07;16.30;99.90
15888;DHT22;56032;51.324;12.376;2022-10-16T00:57:36;16.30;99.90
15888;DHT22;56032;51.324;12.376;2022-10-16T01:00:06;16.30;99.90
15888;DHT22;56032;51.324;12.376;2022-10-16T01:02:34;16.30;99.90
15888;DHT22;56032;51.324;12.376;2022-10-16T01:05:03;16.30;99.90
15888;DHT22;56032;51.324;12.376;2022-10-16T01:07:36;16.30;99.90
15888;DHT22;56032;51.324;12.376;2022-10-16T01:10:09;16.30;99.90
15888;DHT22;56032;51.324;12.376;2022-10-16T01:12:40;16.30;99.90
15888;DHT22;56032;51.324;12.376;2022-10-16T01:15:15;16.30;99.90
15888;DHT22;56032;51.324;12.376;2022-10-16T01:17:47;16.30;99.90
15888;DHT22;56032;51.324;12.376;2022-10-16T01:20:20;16.20;99.90
15888;DHT22;56032;51.324;12.376;2022-10-16T01:22:59;16.20;99.90
15888;DHT22;56032;51.324;12.376;2022-10-16T01:25:35;16.20;99.90
15888;DHT22;56032;51.324;12.376;2022-10-16T01:28:07;16.20;99.90
15888;DHT22;56032;51.324;12.376;2022-10-16T01:30:37;16.20;99.90
15888;DHT22;56032;51.324;12.376;2022-10-16T01:33:06;16.20;99.90
15888;DHT22;56032;51.324;12.376;2022-10-16T01:35:37;16.20;99.90
15888;DHT22;56032;51.324;12.376;2022-10-16T01:38:08;16.20;99.90
15888;DHT22;56032;51.324;12.376;2022-10-16T01:40:39;16.20;99.90
15888;DHT22;56032;51.324;12.376;2022-10-16T01:43:10;16.20;99.90
15888;DHT22;56032;51.324;12.376;2022-10-16T01:45:40;16.20;99.90
15888;DHT22;56032;51.324;12.376;2022-10-16T01:48:09;16.20;99.90
15888;DHT22;56032;51.324;12.376;2022-10-16T01:50:38;16.10;99.90
15888;DHT22;56032;51.324;12.376;2022-10-16T01:53:08;16.10;99.90
15888;DHT22;56032;51.324;12.376;2022-10-16T01:55:39;16.10;99.90
15888;DHT22;56032;51.324;12.376;2022-10-16T01:58:13;16.10;99.90
15888;DHT22;56032;51.324;12.376;2022-10-16T02:00:43;16.00;99.90
15888;DHT22;56032;51.324;12.376;2022-10-16T02:03:13;16.00;99.90
15888;DHT22;56032;51.324;12.376;2022-10-16T02:05:42;15.90;99.90
15888;DHT22;56032;51.324;12.376;2022-10-16T02:08:13;15.90;99.90
15888;DHT22;56032;51.324;12.376;2022-10-16T02:10:41;15.90;99.90
15888;DHT22;56032;51.324;12.376;2022-10-16T02:13:11;15.90;99.90
15888;DHT22;56032;51.324;12.376;2022-10-16T02:15:42;15.90;99.90
15888;DHT22;56032;51.324;12.376;2022-10-16T02:18:10;15.90;99.90
15888;DHT22;56032;51.324;12.376;2022-10-16T02:20:43;15.90;99.90
15888;DHT22;56032;51.324;12.376;2022-10-16T02:23:16;15.90;99.90
15888;DHT22;56032;51.324;12.376;2022-10-16T02:25:47;15.90;99.90
15888;DHT22;56032;51.324;12.376;2022-10-16T02:28:17;15.90;99.90
15888;DHT22;56032;51.324;12.376;2022-10-16T02:30:49;15.90;99.90
15888;DHT22;56032;51.324;12.376;2022-10-16T02:33:18;15.90;99.90
15888;DHT22;56032;51.324;12.376;2022-10-16T02:35:48;15.90;99.90
15888;DHT22;56032;51.324;12.376;2022-10-16T02:38:18;15.90;99.90
15888;DHT22;56032;51.324;12.376;2022-10-16T02:40:47;15.80;99.90
15888;DHT22;56032;51.324;12.376;2022-10-16T02:43:16;15.80;99.90
15888;DHT22;56032;51.324;12.376;2022-10-16T02:45:44;15.80;99.90
15888;DHT22;56032;51.324;12.376;2022-10-16T02:48:14;15.80;99.90
15888;DHT22;56032;51.324;12.376;2022-10-16T02:50:42;15.80;99.90
15888;DHT22;56032;51.324;12.376;2022-10-16T02:53:10;15.80;99.90
15888;DHT22;56032;51.324;12.376;2022-10-16T02:55:39;15.80;99.90
15888;DHT22;56032;51.324;12.376;2022-10-16T02:58:07;15.80;99.90
15888;DHT22;56032;51.324;12.376;2022-10-16T03:00:36;15.70;99.90
15888;DHT22;56032;51.324;12.376;2022-10-16T03:03:04;15.70;99.90
15888;DHT22;56032;51.324;12.376;2022-10-16T03:05:34;15.70;99.90
15888;DHT22;56032;51.324;12.376;2022-10-16T03:08:02;15.70;99.90
15888;DHT22;56032;51.324;12.376;2022-10-16T03:10:30;15.70;99.90
15888;DHT22;56032;51.324;12.376;2022-10-16T03:12:59;15.60;99.90
15888;DHT22;56032;51.324;12.376;2022-10-16T03:15:27;15.60;99.90
15888;DHT22;56032;51.324;12.376;2022-10-16T03:17:57;15.60;99.90
15888;DHT22;56032;51.324;12.376;2022-10-16T03:20:25;15.60;99.90
15888;DHT22;56032;51.324;12.376;2022-10-16T03:22:55;15.60;99.90
15888;DHT22;56032;51.324;12.376;2022-10-16T03:25:23;15.60;99.90
15888;DHT22;56032;51.324;12.376;2022-10-16T03:27:52;15.60;99.90
15888;DHT22;56032;51.324;12.376;2022-10-16T03:30:20;15.60;99.90
15888;DHT22;56032;51.324;12.376;2022-10-16T03:32:48;15.50;99.90
15888;DHT22;56032;51.324;12.376;2022-10-16T03:35:20;15.50;99.90
15888;DHT22;56032;51.324;12.376;2022-10-16T03:37:49;15.50;99.90
15888;DHT22;56032;51.324;12.376;2022-10-16T03:40:19;15.50;99.90
15888;DHT22;56032;51.324;12.376;2022-10-16T03:42:47;15.60;99.90
15888;DHT22;56032;51.324;12.376;2022-10-16T03:45:16;15.60;99.90
15888;DHT22;56032;51.324;12.376;2022-10-16T03:47:44;15.50;99.90
15888;DHT22;56032;51.324;12.376;2022-10-16T03:50:12;15.50;99.90
15888;DHT22;56032;51.324;12.376;2022-10-16T03:52:41;15.50;99.90
15888;DHT22;56032;51.324;12.376;2022-10-16T03:55:09;15.50;99.90
15888;DHT22;56032;51.324;12.376;2022-10-16T03:57:39;15.50;99.90
15888;DHT22;56032;51.324;12.376;2022-10-16T04:00:08;15.50;99.90
15888;DHT22;56032;51.324;12.376;2022-10-16T04:02:36;15.50;99.90
15888;DHT22;56032;51.324;12.376;2022-10-16T04:05:05;15.50;99.90
15888;DHT22;56032;51.324;12.376;2022-10-16T04:07:34;15.50;99.90
15888;DHT22;56032;51.324;12.376;2022-10-16T04:10:03;15.50;99.90
15888;DHT22;56032;51.324;12.376;2022-10-16T04:12:31;15.50;99.90
15888;DHT22;56032;51.324;12.376;2022-10-16T04:15:01;15.50;99.90
15888;DHT22;56032;51.324;12.376;2022-10-16T04:17:30;15.50;99.90
15888;DHT22;56032;51.324;12.376;2022-10-16T04:19:58;15.50;99.90
15888;DHT22;56032;51.324;12.376;2022-10-16T04:22:26;15.40;99.90
15888;DHT22;56032;51.324;12.376;2022-10-16T04:24:54;15.50;99.90
15888;DHT22;56032;51.324;12.376;2022-10-16T04:27:23;15.50;99.90
15888;DHT22;56032;51.324;12.376;2022-10-16T04:29:51;15.40;99.90
15888;DHT22;56032;51.324;12.376;2022-10-16T04:32:21;15.40;99.90
15888;DHT22;56032;51.324;12.376;2022-10-16T04:34:49;15.30;99.90
15888;DHT22;56032;51.324;12.376;2022-10-16T04:37:18;15.40;99.90
15888;DHT22;56032;51.324;12.376;2022-10-16T04:39:46;15.30;99.90
15888;DHT22;56032;51.324;12.376;2022-10-16T04:42:14;15.30;99.90
15888;DHT22;56032;51.324;12.376;2022-10-16T04:44:42;15.20;99.90
15888;DHT22;56032;51.324;12.376;2022-10-16T04:47:11;15.20;99.90
15888;DHT22;56032;51.324;12.376;2022-10-16T04:49:41;15.20;99.90
15888;DHT22;56032;51.324;12.376;2022-10-16T04:52:09;15.20;99.90
15888;DHT22;56032;51.324;12.376;2022-10-16T04:54:37;15.20;99.90
15888;DHT22;56032;51.324;12.376;2022-10-16T04:57:06;15.30;99.90
15888;DHT22;56032;51.324;12.376;2022-10-16T04:59:34;15.30;99.90
15888;DHT22;56032;51.324;12.376;2022-10-16T05:02:02;15.20;99.90
15888;DHT22;56032;51.324;12.376;2022-10-16T05:04:31;15.30;99.90
15888;DHT22;56032;51.324;12.376;2022-10-16T05:07:01;15.30;99.90
15888;DHT22;56032;51.324;12.376;2022-10-16T05:09:29;15.30;99.90
15888;DHT22;56032;51.324;12.376;2022-10-16T05:11:57;15.30;99.90
15888;DHT22;56032;51.324;12.376;2022-10-16T05:14:26;15.30;99.90
15888;DHT22;56032;51.324;12.376;2022-10-16T05:16:54;15.30;99.90
15888;DHT22;56032;51.324;12.376;2022-10-16T05:19:22;15.30;99.90
15888;DHT22;56032;51.324;12.376;2022-10-16T05:21:53;15.30;99.90
15888;DHT22;56032;51.324;12.376;2022-10-16T05:24:23;15.30;99.90
15888;DHT22;56032;51.324;12.376;2022-10-16T05:26:51;15.30;99.90
15888;DHT22;56032;51.324;12.376;2022-10-16T05:29:20;15.30;99.90
15888;DHT22;56032;51.324;12.376;2022-10-16T05:31:49;15.30;99.90
15888;DHT22;56032;51.324;12.376;2022-10-16T05:34:18;15.30;99.90
15888;DHT22;56032;51.324;12.376;2022-10-16T05:36:46;15.30;99.90
15888;DHT22;56032;51.324;12.376;2022-10-16T05:39:15;15.20;99.90
15888;DHT22;56032;51.324;12.376;2022-10-16T05:41:45;15.20;99.90
15888;DHT22;56032;51.324;12.376;2022-10-16T05:44:14;15.20;99.90
15888;DHT22;56032;51.324;12.376;2022-10-16T05:46:42;15.20;99.90
15888;DHT22;56032;51.324;12.376;2022-10-16T05:49:11;15.20;99.90
15888;DHT22;56032;51.324;12.376;2022-10-16T05:51:39;15.20;99.90
15888;DHT22;56032;51.324;12.376;2022-10-16T05:54:08;15.20;99.90
15888;DHT22;56032;51.324;12.376;2022-10-16T05:56:36;15.30;99.90
15888;DHT22;56032;51.324;12.376;2022-10-16T05:59:06;15.30;99.90
15888;DHT22;56032;51.324;12.376;2022-10-16T06:01:34;15.30;99.90
15888;DHT22;56032;51.324;12.376;2022-10-16T06:04:02;15.30;99.90
15888;DHT22;56032;51.324;12.376;2022-10-16T06:06:31;15.30;99.90
15888;DHT22;56032;51.324;12.376;2022-10-16T06:08:59;15.40;99.90
15888;DHT22;56032;51.324;12.376;2022-10-16T06:11:28;15.40;99.90
15888;DHT22;56032;51.324;12.376;2022-10-16T06:13:57;15.50;99.90
15888;DHT22;56032;51.324;12.376;2022-10-16T06:16:28;15.50;99.90
15888;DHT22;56032;51.324;12.376;2022-10-16T06:18:56;15.60;99.90
15888;DHT22;56032;51.324;12.376;2022-10-16T06:21:26;15.60;99.90
15888;DHT22;56032;51.324;12.376;2022-10-16T06:23:55;15.80;99.90
15888;DHT22;56032;51.324;12.376;2022-10-16T06:26:24;15.70;99.90
15888;DHT22;56032;51.324;12.376;2022-10-16T06:28:53;15.70;99.90
15888;DHT22;56032;51.324;12.376;2022-10-16T06:31:22;15.70;99.90
15888;DHT22;56032;51.324;12.376;2022-10-16T06:33:55;15.70;99.90
15888;DHT22;56032;51.324;12.376;2022-10-16T06:36:24;15.80;99.90
15888;DHT22;56032;51.324;12.376;2022-10-16T06:38:52;15.90;99.90
15888;DHT22;56032;51.324;12.376;2022-10-16T06:41:21;16.00;99.90
15888;DHT22;56032;51.324;12.376;2022-10-16T06:43:50;16.00;99.90
15888;DHT22;56032;51.324;12.376;2022-10-16T06:46:19;16.10;99.90
15888;DHT22;56032;51.324;12.376;2022-10-16T06:48:48;16.00;99.90
15888;DHT22;56032;51.324;12.376;2022-10-16T06:51:19;16.10;99.90
15888;DHT22;56032;51.324;12.376;2022-10-16T06:53:48;16.10;99.90
15888;DHT22;56032;51.324;12.376;2022-10-16T06:56:32;16.10;99.90
15888;DHT22;56032;51.324;12.376;2022-10-16T06:59:01;16.10;99.90
15888;DHT22;56032;51.324;12.376;2022-10-16T07:01:30;16.10;99.90
15888;DHT22;56032;51.324;12.376;2022-10-16T07:03:58;16.20;99.90
15888;DHT22;56032;51.324;12.376;2022-10-16T07:06:30;16.20;99.90
15888;DHT22;56032;51.324;12.376;2022-10-16T07:09:00;16.20;99.90
15888;DHT22;56032;51.324;12.376;2022-10-16T07:11:29;16.20;99.90
15888;DHT22;56032;51.324;12.376;2022-10-16T07:13:57;16.20;99.90
15888;DHT22;56032;51.324;12.376;2022-10-16T07:16:26;16.20;99.90
15888;DHT22;56032;51.324;12.376;2022-10-16T07:18:55;16.30;99.90
15888;DHT22;56032;51.324;12.376;2022-10-16T07:21:27;16.30;99.90
15888;DHT22;56032;51.324;12.376;2022-10-16T07:23:57;16.30;99.90
15888;DHT22;56032;51.324;12.376;2022-10-16T07:26:26;16.30;99.90
15888;DHT22;56032;51.324;12.376;2022-10-16T07:28:58;16.40;99.90
15888;DHT22;56032;51.324;12.376;2022-10-16T07:31:27;16.40;99.90
15888;DHT22;56032;51.324;12.376;2022-10-16T07:33:57;16.50;99.90
15888;DHT22;56032;51.324;12.376;2022-10-16T07:36:26;16.60;99.90
15888;DHT22;56032;51.324;12.376;2022-10-16T07:38:56;16.70;99.90
15888;DHT22;56032;51.324;12.376;2022-10-16T07:41:26;16.70;99.90
15888;DHT22;56032;51.324;12.376;2022-10-16T07:43:55;16.80;99.90
15888;DHT22;56032;51.324;12.376;2022-10-16T07:46:27;16.80;99.90
15888;DHT22;56032;51.324;12.376;2022-10-16T07:48:56;16.90;99.90
15888;DHT22;56032;51.324;12.376;2022-10-16T07:51:24;17.00;99.90
15888;DHT22;56032;51.324;12.376;2022-10-16T07:53:53;17.20;99.90
15888;DHT22;56032;51.324;12.376;2022-10-16T07:56:23;17.30;99.90
15888;DHT22;56032;51.324;12.376;2022-10-16T07:58:51;17.40;99.90
15888;DHT22;56032;51.324;12.376;2022-10-16T08:01:19;17.50;99.90
15888;DHT22;56032;51.324;12.376;2022-10-16T08:03:48;17.60;99.90
15888;DHT22;56032;51.324;12.376;2022-10-16T08:06:17;17.70;99.90
15888;DHT22;56032;51.324;12.376;2022-10-16T08:08:52;18.00;99.90
15888;DHT22;56032;51.324;12.376;2022-10-16T08:11:21;18.20;99.90
15888;DHT22;56032;51.324;12.376;2022-10-16T08:13:51;18.40;99.90
15888;DHT22;56032;51.324;12.376;2022-10-16T08:16:20;18.60;99.90
15888;DHT22;56032;51.324;12.376;2022-10-16T08:18:48;18.70;99.90
15888;DHT22;56032;51.324;12.376;2022-10-16T08:21:19;18.90;99.90
15888;DHT22;56032;51.324;12.376;2022-10-16T08:23:48;19.10;99.90
15888;DHT22;56032;51.324;12.376;2022-10-16T08:26:22;19.10;99.90
15888;DHT22;56032;51.324;12.376;2022-10-16T08:28:52;18.90;99.90
15888;DHT22;56032;51.324;12.376;2022-10-16T08:31:21;18.80;99.90
15888;DHT22;56032;51.324;12.376;2022-10-16T08:33:49;18.70;99.90
15888;DHT22;56032;51.324;12.376;2022-10-16T08:36:19;18.70;99.90
15888;DHT22;56032;51.324;12.376;2022-10-16T08:38:48;18.60;99.90
15888;DHT22;56032;51.324;12.376;2022-10-16T08:41:19;18.60;99.90
15888;DHT22;56032;51.324;12.376;2022-10-16T08:43:58;18.70;99.90
15888;DHT22;56032;51.324;12.376;2022-10-16T08:46:31;18.80;99.90
15888;DHT22;56032;51.324;12.376;2022-10-16T08:49:03;18.80;99.90
15888;DHT22;56032;51.324;12.376;2022-10-16T08:51:35;18.90;99.90
15888;DHT22;56032;51.324;12.376;2022-10-16T08:54:14;19.00;99.90
15888;DHT22;56032;51.324;12.376;2022-10-16T08:56:43;19.10;99.90
15888;DHT22;56032;51.324;12.376;2022-10-16T08:59:13;19.20;99.90
15888;DHT22;56032;51.324;12.376;2022-10-16T09:01:43;19.20;99.90
15888;DHT22;56032;51.324;12.376;2022-10-16T09:06:56;19.20;99.90
15888;DHT22;56032;51.324;12.376;2022-10-16T09:09:37;19.20;99.90
15888;DHT22;56032;51.324;12.376;2022-10-16T09:12:11;19.20;99.90
15888;DHT22;56032;51.324;12.376;2022-10-16T09:14:47;19.30;99.90
15888;DHT22;56032;51.324;12.376;2022-10-16T09:17:26;19.50;99.90
15888;DHT22;56032;51.324;12.376;2022-10-16T09:20:06;19.60;99.90
15888;DHT22;56032;51.324;12.376;2022-10-16T09:22:38;19.70;99.90
15888;DHT22;56032;51.324;12.376;2022-10-16T09:25:10;19.70;99.90
15888;DHT22;56032;51.324;12.376;2022-10-16T09:27:40;19.70;99.90
15888;DHT22;56032;51.324;12.376;2022-10-16T09:30:14;19.60;99.90
15888;DHT22;56032;51.324;12.376;2022-10-16T09:32:43;19.50;99.90
15888;DHT22;56032;51.324;12.376;2022-10-16T09:35:14;19.50;99.90
15888;DHT22;56032;51.324;12.376;2022-10-16T09:37:42;19.60;99.90
15888;DHT22;56032;51.324;12.376;2022-10-16T09:40:12;19.70;99.90
15888;DHT22;56032;51.324;12.376;2022-10-16T09:42:41;19.90;99.90
15888;DHT22;56032;51.324;12.376;2022-10-16T09:45:21;20.00;99.90
15888;DHT22;56032;51.324;12.376;2022-10-16T09:47:50;20.10;99.90
15888;DHT22;56032;51.324;12.376;2022-10-16T09:50:24;20.20;99.90
15888;DHT22;56032;51.324;12.376;2022-10-16T09:53:06;20.10;99.90
15888;DHT22;56032;51.324;12.376;2022-10-16T09:55:36;20.00;99.90
15888;DHT22;56032;51.324;12.376;2022-10-16T09:58:15;20.00;99.90
15888;DHT22;56032;51.324;12.376;2022-10-16T10:00:49;20.00;99.90
15888;DHT22;56032;51.324;12.376;2022-10-16T10:03:33;19.90;99.90
15888;DHT22;56032;51.324;12.376;2022-10-16T10:06:04;19.80;99.90
15888;DHT22;56032;51.324;12.376;2022-10-16T10:08:33;19.80;99.90
15888;DHT22;56032;51.324;12.376;2022-10-16T10:11:01;20.10;99.90
15888;DHT22;56032;51.324;12.376;2022-10-16T10:13:31;20.40;99.90
15888;DHT22;56032;51.324;12.376;2022-10-16T10:16:01;20.60;99.90
15888;DHT22;56032;51.324;12.376;2022-10-16T10:18:30;20.70;99.90
15888;DHT22;56032;51.324;12.376;2022-10-16T10:20:59;20.70;99.90
15888;DHT22;56032;51.324;12.376;2022-10-16T10:23:28;20.80;99.90
15888;DHT22;56032;51.324;12.376;2022-10-16T10:25:58;20.60;99.90
15888;DHT22;56032;51.324;12.376;2022-10-16T10:28:36;20.40;99.90
15888;DHT22;56032;51.324;12.376;2022-10-16T10:31:09;20.30;99.90
15888;DHT22;56032;51.324;12.376;2022-10-16T10:33:43;20.20;99.90
15888;DHT22;56032;51.324;12.376;2022-10-16T10:36:19;20.30;99.90
15888;DHT22;56032;51.324;12.376;2022-10-16T10:38:51;20.30;99.90
15888;DHT22;56032;51.324;12.376;2022-10-16T10:41:30;20.40;99.90
15888;DHT22;56032;51.324;12.376;2022-10-16T10:44:03;20.30;99.90
15888;DHT22;56032;51.324;12.376;2022-10-16T10:46:36;20.20;99.90
15888;DHT22;56032;51.324;12.376;2022-10-16T10:52:00;20.20;99.90
15888;DHT22;56032;51.324;12.376;2022-10-16T10:54:32;20.10;99.90
15888;DHT22;56032;51.324;12.376;2022-10-16T10:57:06;20.10;99.90
15888;DHT22;56032;51.324;12.376;2022-10-16T10:59:38;20.20;99.90
15888;DHT22;56032;51.324;12.376;2022-10-16T11:02:15;20.20;99.90
15888;DHT22;56032;51.324;12.376;2022-10-16T11:04:52;20.20;99.90
15888;DHT22;56032;51.324;12.376;2022-10-16T11:07:25;20.20;99.90
15888;DHT22;56032;51.324;12.376;2022-10-16T11:09:56;20.20;99.90
15888;DHT22;56032;51.324;12.376;2022-10-16T11:12:27;20.30;99.90
15888;DHT22;56032;51.324;12.376;2022-10-16T11:14:58;20.30;99.90
15888;DHT22;56032;51.324;12.376;2022-10-16T11:17:31;20.30;99.90
15888;DHT22;56032;51.324;12.376;2022-10-16T11:20:03;20.30;99.90
15888;DHT22;56032;51.324;12.376;2022-10-16T11:22:34;20.30;99.90
15888;DHT22;56032;51.324;12.376;2022-10-16T11:25:05;20.30;99.90
15888;DHT22;56032;51.324;12.376;2022-10-16T11:27:40;20.40;99.90
15888;DHT22;56032;51.324;12.376;2022-10-16T11:30:13;20.40;99.90
15888;DHT22;56032;51.324;12.376;2022-10-16T11:32:46;20.40;99.90
15888;DHT22;56032;51.324;12.376;2022-10-16T11:35:18;20.40;99.90
15888;DHT22;56032;51.324;12.376;2022-10-16T11:37:48;20.40;99.90
15888;DHT22;56032;51.324;12.376;2022-10-16T11:40:20;20.50;99.90
15888;DHT22;56032;51.324;12.376;2022-10-16T11:42:51;20.60;99.90
15888;DHT22;56032;51.324;12.376;2022-10-16T11:45:24;20.60;99.90
15888;DHT22;56032;51.324;12.376;2022-10-16T11:47:57;20.60;99.90
15888;DHT22;56032;51.324;12.376;2022-10-16T11:50:28;20.60;99.90
15888;DHT22;56032;51.324;12.376;2022-10-16T11:53:01;20.60;99.90
15888;DHT22;56032;51.324;12.376;2022-10-16T11:55:32;20.60;99.90
15888;DHT22;56032;51.324;12.376;2022-10-16T11:58:03;20.70;99.90
15888;DHT22;56032;51.324;12.376;2022-10-16T12:00:35;20.70;99.90
15888;DHT22;56032;51.324;12.376;2022-10-16T12:03:09;20.70;99.90
15888;DHT22;56032;51.324;12.376;2022-10-16T12:05:45;20.70;99.90
15888;DHT22;56032;51.324;12.376;2022-10-16T12:08:18;20.70;99.90
15888;DHT22;56032;51.324;12.376;2022-10-16T12:10:49;20.60;99.90
15888;DHT22;56032;51.324;12.376;2022-10-16T12:13:30;20.60;99.90
15888;DHT22;56032;51.324;12.376;2022-10-16T12:16:05;20.70;99.90
15888;DHT22;56032;51.324;12.376;2022-10-16T12:18:35;20.70;99.90
15888;DHT22;56032;51.324;12.376;2022-10-16T12:21:04;20.70;99.90
15888;DHT22;56032;51.324;12.376;2022-10-16T12:23:36;20.60;99.90
15888;DHT22;56032;51.324;12.376;2022-10-16T12:26:06;20.50;99.90
15888;DHT22;56032;51.324;12.376;2022-10-16T12:28:34;20.50;99.90
15888;DHT22;56032;51.324;12.376;2022-10-16T12:31:05;20.40;99.90
15888;DHT22;56032;51.324;12.376;2022-10-16T12:33:37;20.30;99.90
15888;DHT22;56032;51.324;12.376;2022-10-16T12:36:07;20.20;99.90
15888;DHT22;56032;51.324;12.376;2022-10-16T12:38:45;20.20;99.90
15888;DHT22;56032;51.324;12.376;2022-10-16T12:41:23;20.20;99.90
15888;DHT22;56032;51.324;12.376;2022-10-16T12:43:52;20.30;99.90
15888;DHT22;56032;51.324;12.376;2022-10-16T12:46:21;20.30;99.90
15888;DHT22;56032;51.324;12.376;2022-10-16T12:48:51;20.30;99.90
15888;DHT22;56032;51.324;12.376;2022-10-16T12:51:35;20.30;99.90
15888;DHT22;56032;51.324;12.376;2022-10-16T12:54:04;20.20;99.90
15888;DHT22;56032;51.324;12.376;2022-10-16T12:56:41;20.10;99.90
15888;DHT22;56032;51.324;12.376;2022-10-16T12:59:17;20.10;99.90
15888;DHT22;56032;51.324;12.376;2022-10-16T13:01:52;20.10;99.90
15888;DHT22;56032;51.324;12.376;2022-10-16T13:04:40;20.00;99.90
15888;DHT22;56032;51.324;12.376;2022-10-16T13:07:16;20.00;99.90
15888;DHT22;56032;51.324;12.376;2022-10-16T13:09:50;20.00;99.90
15888;DHT22;56032;51.324;12.376;2022-10-16T13:12:25;20.10;99.90
15888;DHT22;56032;51.324;12.376;2022-10-16T13:14:59;20.10;99.90
15888;DHT22;56032;51.324;12.376;2022-10-16T13:17:31;20.10;99.90
15888;DHT22;56032;51.324;12.376;2022-10-16T13:20:06;20.10;99.90
15888;DHT22;56032;51.324;12.376;2022-10-16T13:22:41;20.00;99.90
15888;DHT22;56032;51.324;12.376;2022-10-16T13:25:19;20.00;99.90
15888;DHT22;56032;51.324;12.376;2022-10-16T13:27:50;20.00;99.90
15888;DHT22;56032;51.324;12.376;2022-10-16T13:30:20;20.00;99.90
15888;DHT22;56032;51.324;12.376;2022-10-16T13:32:59;20.00;99.90
15888;DHT22;56032;51.324;12.376;2022-10-16T13:35:30;20.00;99.90
15888;DHT22;56032;51.324;12.376;2022-10-16T13:38:15;20.00;99.90
15888;DHT22;56032;51.324;12.376;2022-10-16T13:40:50;20.10;99.90
15888;DHT22;56032;51.324;12.376;2022-10-16T13:43:19;20.20;99.90
15888;DHT22;56032;51.324;12.376;2022-10-16T13:45:55;20.30;99.90
15888;DHT22;56032;51.324;12.376;2022-10-16T13:48:24;20.40;99.90
15888;DHT22;56032;51.324;12.376;2022-10-16T13:51:04;20.40;99.90
15888;DHT22;56032;51.324;12.376;2022-10-16T13:53:34;20.30;99.90
15888;DHT22;56032;51.324;12.376;2022-10-16T13:56:04;20.10;99.90
15888;DHT22;56032;51.324;12.376;2022-10-16T13:58:34;20.10;99.90
15888;DHT22;56032;51.324;12.376;2022-10-16T14:01:02;20.00;99.90
15888;DHT22;56032;51.324;12.376;2022-10-16T14:03:32;19.90;99.90
15888;DHT22;56032;51.324;12.376;2022-10-16T14:06:04;19.80;99.90
15888;DHT22;56032;51.324;12.376;2022-10-16T14:08:35;19.80;99.90
15888;DHT22;56032;51.324;12.376;2022-10-16T14:11:04;19.80;99.90
15888;DHT22;56032;51.324;12.376;2022-10-16T14:13:32;19.70;99.90
15888;DHT22;56032;51.324;12.376;2022-10-16T14:16:02;19.70;99.90
15888;DHT22;56032;51.324;12.376;2022-10-16T14:18:33;19.70;99.90
15888;DHT22;56032;51.324;12.376;2022-10-16T14:21:05;19.70;99.90
15888;DHT22;56032;51.324;12.376;2022-10-16T14:23:35;19.70;99.90
15888;DHT22;56032;51.324;12.376;2022-10-16T14:29:01;19.70;99.90
15888;DHT22;56032;51.324;12.376;2022-10-16T14:31:32;19.70;99.90
15888;DHT22;56032;51.324;12.376;2022-10-16T14:34:03;19.80;99.90
15888;DHT22;56032;51.324;12.376;2022-10-16T14:36:33;19.80;99.90
15888;DHT22;56032;51.324;12.376;2022-10-16T14:39:03;19.80;99.90
15888;DHT22;56032;51.324;12.376;2022-10-16T14:41:33;19.80;99.90
15888;DHT22;56032;51.324;12.376;2022-10-16T14:44:09;19.80;99.90
15888;DHT22;56032;51.324;12.376;2022-10-16T14:46:39;19.80;99.90
15888;DHT22;56032;51.324;12.376;2022-10-16T14:49:13;19.80;99.90
15888;DHT22;56032;51.324;12.376;2022-10-16T14:51:46;19.70;99.90
15888;DHT22;56032;51.324;12.376;2022-10-16T14:57:45;19.70;99.90
15888;DHT22;56032;51.324;12.376;2022-10-16T15:03:01;19.60;99.90
15888;DHT22;56032;51.324;12.376;2022-10-16T15:05:29;19.60;99.90
15888;DHT22;56032;51.324;12.376;2022-10-16T15:08:01;19.60;99.90
15888;DHT22;56032;51.324;12.376;2022-10-16T15:10:31;19.60;99.90
15888;DHT22;56032;51.324;12.376;2022-10-16T15:13:00;19.60;99.90
15888;DHT22;56032;51.324;12.376;2022-10-16T15:15:33;19.50;99.90
15888;DHT22;56032;51.324;12.376;2022-10-16T15:18:02;19.50;99.90
15888;DHT22;56032;51.324;12.376;2022-10-16T15:20:32;19.50;99.90
15888;DHT22;56032;51.324;12.376;2022-10-16T15:23:03;19.40;99.90
15888;DHT22;56032;51.324;12.376;2022-10-16T15:25:35;19.40;99.90
15888;DHT22;56032;51.324;12.376;2022-10-16T15:28:04;19.30;99.90
15888;DHT22;56032;51.324;12.376;2022-10-16T15:30:34;19.30;99.90
15888;DHT22;56032;51.324;12.376;2022-10-16T15:33:13;19.20;99.90
15888;DHT22;56032;51.324;12.376;2022-10-16T15:35:48;19.20;99.90
15888;DHT22;56032;51.324;12.376;2022-10-16T15:38:22;19.10;99.90
15888;DHT22;56032;51.324;12.376;2022-10-16T15:40:54;19.10;99.90
15888;DHT22;56032;51.324;12.376;2022-10-16T15:43:34;19.10;99.90
15888;DHT22;56032;51.324;12.376;2022-10-16T15:46:04;19.10;99.90
15888;DHT22;56032;51.324;12.376;2022-10-16T15:48:39;19.10;99.90
15888;DHT22;56032;51.324;12.376;2022-10-16T15:51:10;19.10;99.90
15888;DHT22;56032;51.324;12.376;2022-10-16T15:53:43;19.10;99.90